createdAt,value
2022-11-15T00:04:29.571Z,29.6
2022-11-15T00:10:19.116Z,29.6
2022-11-15T00:15:25.612Z,29.3
2022-11-15T00:21:04.065Z,28.9
2022-11-15T00:26:41.623Z,28.6
2022-11-15T00:32:05.451Z,28.5
2022-11-15T00:37:43.842Z,28.3
2022-11-15T00:43:23.179Z,28.1
2022-11-15T00:54:08.275Z,27.6
2022-11-15T00:59:45.242Z,27.4
2022-11-15T01:05:09.470Z,27.3
2022-11-15T01:10:47.026Z,27.1
2022-11-15T01:16:24.434Z,27
2022-11-15T01:22:02.143Z,26.8
2022-11-15T01:27:40.388Z,26.5
2022-11-15T01:33:17.756Z,26.3
2022-11-15T01:38:55.185Z,26.1
2022-11-15T01:44:32.394Z,25.9
2022-11-15T01:49:54.066Z,25.6
2022-11-15T01:55:32.151Z,25.4
2022-11-15T02:01:09.961Z,25
2022-11-15T02:06:32.328Z,24.6
2022-11-15T02:11:23.566Z,24.4
2022-11-15T02:16:59.831Z,24.2
2022-11-15T02:22:36.596Z,23.9
2022-11-15T02:27:43.704Z,25.6
2022-11-15T02:33:20.635Z,25
2022-11-15T02:38:57.425Z,24.6
2022-11-15T02:44:19.344Z,24.6
2022-11-15T02:49:56.212Z,24.4
2022-11-15T02:54:47.605Z,24.2
2022-11-15T03:00:24.203Z,23.9
2022-11-15T03:05:47.169Z,23.6
2022-11-15T03:11:09.310Z,23.3
2022-11-15T03:16:15.441Z,22.9
2022-11-15T03:21:36.600Z,22.7
2022-11-15T03:26:57.718Z,22.4
2022-11-15T03:32:23.118Z,22.1
2022-11-15T03:37:59.868Z,21.9
2022-11-15T03:43:27.247Z,21.7
2022-11-15T03:49:04.503Z,21.5
2022-11-15T03:54:41.407Z,21.3
2022-11-15T04:05:10.393Z,20.9
2022-11-15T04:10:33.798Z,20.9
2022-11-15T04:15:39.123Z,20.8
2022-11-15T04:21:16.691Z,20.6
2022-11-15T04:27:00.391Z,20.6
2022-11-15T04:32:21.965Z,20.5
2022-11-15T04:38:05.625Z,20.4
2022-11-15T04:43:42.833Z,20.4
2022-11-15T04:49:19.095Z,20.4
2022-11-15T04:54:41.409Z,20.3
2022-11-15T05:00:09.120Z,20.3
2022-11-15T05:05:52.059Z,20.3
2022-11-15T05:11:14.759Z,20.2
2022-11-15T05:16:37.260Z,20.1
2022-11-15T05:22:16.241Z,20.1
2022-11-15T05:27:39.111Z,20.1
2022-11-15T05:33:16.142Z,20.1
2022-11-15T05:38:38.497Z,20.1
2022-11-15T05:44:00.198Z,20
2022-11-15T05:49:37.684Z,20
2022-11-15T05:55:03.641Z,19.9
2022-11-15T06:00:25.749Z,19.9
2022-11-15T06:05:49.134Z,19.9
2022-11-15T06:11:26.610Z,19.8
2022-11-15T06:17:08.642Z,19.8
2022-11-15T06:22:32.165Z,19.7
2022-11-15T06:28:09.263Z,19.6
2022-11-15T06:33:31.346Z,19.3
2022-11-15T06:39:08.336Z,19
2022-11-15T06:44:45.291Z,18.8
2022-11-15T06:50:22.857Z,18.6
2022-11-15T06:56:00.725Z,18.4
2022-11-15T07:01:38.141Z,18.2
2022-11-15T07:07:15.942Z,18.5
2022-11-15T07:12:57.351Z,18.6
2022-11-15T07:23:43.131Z,18.8
2022-11-15T07:29:07.459Z,18.9
2022-11-15T07:34:44.522Z,18.9
2022-11-15T07:40:21.996Z,18.9
2022-11-15T07:46:00.041Z,19
2022-11-15T07:51:32.490Z,19.1
2022-11-15T07:56:55.406Z,19.1
2022-11-15T08:02:34.407Z,19.1
2022-11-15T08:08:12.776Z,19.1
2022-11-15T08:13:51.359Z,19.1
2022-11-15T08:19:33.643Z,19.1
2022-11-15T08:25:12.260Z,19.1
2022-11-15T08:30:50.224Z,19.2
2022-11-15T08:36:39.566Z,19.2
2022-11-15T08:42:20.876Z,19.2
2022-11-15T08:47:59.685Z,19.1
2022-11-15T08:53:37.631Z,19.2
2022-11-15T08:59:17.686Z,19.2
2022-11-15T09:04:56.094Z,19.1
2022-11-15T09:11:02.796Z,19.1
2022-11-15T09:16:45.731Z,19.1
2022-11-15T09:22:31.474Z,19.1
2022-11-15T09:28:44.871Z,19.1
2022-11-15T09:34:25.572Z,19.1
2022-11-15T09:40:09.747Z,19.1
2022-11-15T09:45:49.259Z,19.1
2022-11-15T09:51:26.464Z,19.1
2022-11-15T09:58:12.152Z,19.1
2022-11-15T10:04:10.599Z,19.1
2022-11-15T10:09:39.148Z,19.1
2022-11-15T10:15:51.088Z,19
2022-11-15T10:21:30.027Z,19
2022-11-15T10:26:56.571Z,19
2022-11-15T10:32:37.415Z,19
2022-11-15T10:38:14.558Z,19
2022-11-15T10:45:33.010Z,18.9
2022-11-15T10:51:49.261Z,18.9
2022-11-15T10:57:31.871Z,19
2022-11-15T11:03:15.707Z,19
2022-11-15T11:08:59.888Z,18.9
2022-11-15T11:15:13.044Z,18.9
2022-11-15T11:20:50.817Z,18.9
2022-11-15T11:26:18.461Z,19
2022-11-15T11:31:56.781Z,18.9
2022-11-15T11:37:38.260Z,18.9
2022-11-15T11:43:00.682Z,18.9
2022-11-15T11:48:38.603Z,18.9
2022-11-15T11:54:17.484Z,18.9
2022-11-15T11:59:55.753Z,18.9
2022-11-15T12:05:39.166Z,18.9
2022-11-15T12:11:22.442Z,18.9
2022-11-15T12:17:00.823Z,18.9
2022-11-15T12:22:38.774Z,18.9
2022-11-15T12:28:16.594Z,18.9
2022-11-15T12:34:07.694Z,18.9
2022-11-15T12:39:44.799Z,18.9
2022-11-15T12:44:54.993Z,18.9
2022-11-15T12:50:01.621Z,18.9
2022-11-15T12:55:23.678Z,18.9
2022-11-15T13:01:02.260Z,18.9
2022-11-15T13:06:39.907Z,18.9
2022-11-15T13:12:21.156Z,18.9
2022-11-15T13:17:58.329Z,18.9
2022-11-15T13:23:36.405Z,18.9
2022-11-15T13:28:58.629Z,18.9
2022-11-15T13:34:53.101Z,18.9
2022-11-15T13:40:32.041Z,18.9
2022-11-15T13:46:09.747Z,18.9
2022-11-15T13:51:52.596Z,18.9
2022-11-15T13:57:31.050Z,18.9
2022-11-15T14:03:08.919Z,19
2022-11-15T14:08:52.054Z,19
2022-11-15T14:14:29.818Z,18.9
2022-11-15T14:19:52.586Z,18.9
2022-11-15T14:25:14.705Z,19
2022-11-15T14:30:39.701Z,19
2022-11-15T14:36:01.139Z,19
2022-11-15T14:41:39.367Z,19
2022-11-15T14:46:45.876Z,32.6
2022-11-15T14:52:09.226Z,36.1
2022-11-15T14:57:37.215Z,37.5
2022-11-15T15:03:05.377Z,38.2
2022-11-15T15:08:17.608Z,38.7
2022-11-15T15:14:20.325Z,38.7
2022-11-15T15:19:44.318Z,38.4
2022-11-15T15:25:14.192Z,39.3
2022-11-15T15:30:21.542Z,39.6
2022-11-15T15:35:43.593Z,39
2022-11-15T15:41:08.297Z,38.2
2022-11-15T15:46:30.873Z,36.6
2022-11-15T15:52:01.380Z,37.8
2022-11-15T15:56:56.137Z,39.4
2022-11-15T16:02:03.085Z,39.5
2022-11-15T16:07:25.114Z,39.4
2022-11-15T16:13:01.867Z,39.8
2022-11-15T16:18:24.657Z,40
2022-11-15T16:23:47.039Z,40.1
2022-11-15T16:29:09.895Z,40.1
2022-11-15T16:34:38.782Z,39.4
2022-11-15T16:40:07.684Z,39.6
2022-11-15T16:45:14.632Z,39.6
2022-11-15T16:50:41.280Z,39.3
2022-11-15T16:56:03.411Z,38.9
2022-11-15T17:01:26.176Z,38.6
2022-11-15T17:06:37.167Z,38.6
2022-11-15T17:11:44.496Z,38.5
2022-11-15T17:17:06.089Z,39.5
2022-11-15T17:22:28.455Z,40.1
2022-11-15T17:28:10.932Z,40.3
2022-11-15T17:33:02.481Z,39.9
2022-11-15T17:38:24.968Z,39.8
2022-11-15T17:44:02.671Z,39.6
2022-11-15T17:49:25.562Z,39.3
2022-11-15T17:54:53.399Z,39.3
2022-11-15T18:00:38.184Z,39.7
2022-11-15T18:06:02.359Z,40.3
2022-11-15T18:11:40.685Z,40.4
2022-11-15T18:17:02.693Z,40.5
2022-11-15T18:22:45.266Z,40.5
2022-11-15T18:28:24.677Z,40.1
2022-11-15T18:33:48.029Z,40.4
2022-11-15T18:39:10.997Z,40.7
2022-11-15T18:44:53.842Z,40.5
2022-11-15T18:50:16.449Z,40.1
2022-11-15T18:55:39.209Z,39.8
2022-11-15T19:01:17.074Z,39.4
2022-11-15T19:06:59.047Z,39.3
2022-11-15T19:12:42.119Z,40.1
2022-11-15T19:18:19.443Z,40.4
2022-11-15T19:24:01.078Z,40.3
2022-11-15T19:29:39.375Z,39.9
2022-11-15T19:35:22.426Z,39.6
2022-11-15T19:41:04.620Z,39.2
2022-11-15T19:46:33.692Z,38.8
2022-11-15T19:52:12.024Z,38.9
2022-11-15T19:57:37.156Z,40.1
2022-11-15T20:03:14.878Z,40.4
2022-11-15T20:08:39.509Z,40.2
2022-11-15T20:14:01.349Z,39.6
2022-11-15T20:19:42.561Z,38.9
2022-11-15T20:25:20.669Z,37.4
2022-11-15T20:30:58.281Z,36.6
2022-11-15T20:36:36.366Z,36.1
2022-11-15T20:42:04.520Z,35.3
2022-11-15T20:47:46.767Z,34.9
2022-11-15T20:53:55.286Z,34.3
2022-11-15T20:59:18.190Z,33.4
2022-11-15T21:04:42.067Z,32.6
2022-11-15T21:10:25.422Z,31.9
2022-11-15T21:15:49.910Z,31.3
2022-11-15T21:21:33.302Z,30.7
2022-11-15T21:26:55.818Z,30.1
2022-11-15T21:32:39.747Z,29.8
2022-11-15T21:38:02.171Z,29.4
2022-11-15T21:43:40.875Z,29.1
2022-11-15T21:49:23.852Z,28.8
2022-11-15T21:54:46.071Z,27.8
2022-11-15T21:59:38.094Z,27.1
2022-11-15T22:05:01.059Z,26.6
2022-11-15T22:10:43.685Z,25.9
2022-11-15T22:16:07.543Z,25.4
2022-11-15T22:22:00.855Z,25.3
2022-11-15T22:27:29.002Z,24.9
2022-11-15T22:32:19.293Z,24.7
2022-11-15T22:38:28.022Z,24.6
2022-11-15T22:44:04.787Z,24.3
2022-11-15T22:49:42.894Z,24
2022-11-15T22:55:21.584Z,23.9
2022-11-15T23:00:32.827Z,23.7
2022-11-15T23:06:14.421Z,23.5
2022-11-15T23:11:52.601Z,23.6
2022-11-15T23:17:30.548Z,31
2022-11-15T23:23:32.067Z,31.4
2022-11-15T23:29:10.294Z,28.4
2022-11-15T23:34:54.831Z,27.1
2022-11-15T23:40:32.452Z,26.4
2022-11-15T23:46:16.603Z,25.8
2022-11-15T23:51:54.657Z,25.3
2022-11-15T23:57:30.526Z,24.8
